sensor_id;sensor_type;location;lat;lon;timestamp;pressure;altitude;pressure_sealevel;temperature;humidity
42691;BME280;28306;55.744;37.578;2023-01-27T00:02:16;100074.44;;;23.70;19.13
42691;BME280;28306;55.744;37.578;2023-01-27T00:04:41;100080.69;;;23.71;19.27
42691;BME280;28306;55.744;37.578;2023-01-27T00:07:07;100078.22;;;23.69;19.14
42691;BME280;28306;55.744;37.578;2023-01-27T00:09:32;100072.78;;;23.69;19.50
42691;BME280;28306;55.744;37.578;2023-01-27T00:11:57;100082.84;;;23.69;19.26
42691;BME280;28306;55.744;37.578;2023-01-27T00:14:41;100078.47;;;23.68;19.14
42691;BME280;28306;55.744;37.578;2023-01-27T00:17:07;100095.59;;;23.68;19.22
42691;BME280;28306;55.744;37.578;2023-01-27T00:19:32;100088.50;;;23.67;19.31
42691;BME280;28306;55.744;37.578;2023-01-27T00:21:58;100090.16;;;23.68;19.42
42691;BME280;28306;55.744;37.578;2023-01-27T00:24:42;100085.56;;;23.69;19.37
42691;BME280;28306;55.744;37.578;2023-01-27T00:27:08;100088.28;;;23.69;19.28
42691;BME280;28306;55.744;37.578;2023-01-27T00:29:37;100087.47;;;23.68;19.24
42691;BME280;28306;55.744;37.578;2023-01-27T00:32:03;100082.84;;;23.69;19.36
42691;BME280;28306;55.744;37.578;2023-01-27T00:34:48;100079.31;;;23.68;19.26
42691;BME280;28306;55.744;37.578;2023-01-27T00:37:13;100074.13;;;23.67;19.30
42691;BME280;28306;55.744;37.578;2023-01-27T00:39:39;100075.75;;;23.68;19.51
42691;BME280;28306;55.744;37.578;2023-01-27T00:42:08;100076.59;;;23.68;19.27
42691;BME280;28306;55.744;37.578;2023-01-27T00:44:34;100077.41;;;23.69;19.17
42691;BME280;28306;55.744;37.578;2023-01-27T00:46:59;100070.31;;;23.68;19.14
42691;BME280;28306;55.744;37.578;2023-01-27T00:49:25;100071.97;;;23.69;19.34
42691;BME280;28306;55.744;37.578;2023-01-27T00:51:50;100071.97;;;23.69;19.32
42691;BME280;28306;55.744;37.578;2023-01-27T00:54:16;100071.97;;;23.69;19.50
42691;BME280;28306;55.744;37.578;2023-01-27T00:56:44;100069.25;;;23.69;19.12
42691;BME280;28306;55.744;37.578;2023-01-27T00:59:10;100065.72;;;23.68;19.22
42691;BME280;28306;55.744;37.578;2023-01-27T01:01:36;100066.53;;;23.69;19.29
42691;BME280;28306;55.744;37.578;2023-01-27T01:04:02;100062.16;;;23.68;19.30
42691;BME280;28306;55.744;37.578;2023-01-27T01:06:29;100066.53;;;23.69;19.39
42691;BME280;28306;55.744;37.578;2023-01-27T01:08:55;100056.47;;;23.69;19.29
42691;BME280;28306;55.744;37.578;2023-01-27T01:11:21;100061.91;;;23.69;19.32
42691;BME280;28306;55.744;37.578;2023-01-27T01:13:47;100060.28;;;23.68;19.24
42691;BME280;28306;55.744;37.578;2023-01-27T01:16:17;100059.44;;;23.68;19.33
42691;BME280;28306;55.744;37.578;2023-01-27T01:18:43;100060.28;;;23.68;19.09
42691;BME280;28306;55.744;37.578;2023-01-27T01:21:09;100065.72;;;23.68;19.26
42691;BME280;28306;55.744;37.578;2023-01-27T01:23:39;100064.88;;;23.68;19.21
42691;BME280;28306;55.744;37.578;2023-01-27T01:26:05;100067.59;;;23.68;19.35
42691;BME280;28306;55.744;37.578;2023-01-27T01:28:30;100060.53;;;23.67;19.17
42691;BME280;28306;55.744;37.578;2023-01-27T01:30:56;100063.25;;;23.67;19.09
42691;BME280;28306;55.744;37.578;2023-01-27T01:33:27;100056.72;;;23.68;19.46
42691;BME280;28306;55.744;37.578;2023-01-27T01:35:53;100056.72;;;23.68;19.20
42691;BME280;28306;55.744;37.578;2023-01-27T01:38:18;100053.19;;;23.67;19.31
42691;BME280;28306;55.744;37.578;2023-01-27T01:40:43;100053.19;;;23.67;19.26
42691;BME280;28306;55.744;37.578;2023-01-27T01:43:15;100054.00;;;23.68;19.08
42691;BME280;28306;55.744;37.578;2023-01-27T01:45:44;100060.28;;;23.68;19.19
42691;BME280;28306;55.744;37.578;2023-01-27T01:50:54;100056.72;;;23.68;19.23
42691;BME280;28306;55.744;37.578;2023-01-27T01:53:22;100047.78;;;23.67;19.47
42691;BME280;28306;55.744;37.578;2023-01-27T01:55:55;100057.81;;;23.67;19.34
42691;BME280;28306;55.744;37.578;2023-01-27T01:58:22;100055.09;;;23.67;19.21
42691;BME280;28306;55.744;37.578;2023-01-27T02:00:49;100055.91;;;23.67;19.23
42691;BME280;28306;55.744;37.578;2023-01-27T02:03:14;100059.69;;;23.66;19.24
42691;BME280;28306;55.744;37.578;2023-01-27T02:05:43;100049.91;;;23.65;19.41
42691;BME280;28306;55.744;37.578;2023-01-27T02:10:35;100047.19;;;23.65;19.15
42691;BME280;28306;55.744;37.578;2023-01-27T02:13:00;100047.19;;;23.65;19.25
42691;BME280;28306;55.744;37.578;2023-01-27T02:15:29;100045.53;;;23.64;19.37
42691;BME280;28306;55.744;37.578;2023-01-27T02:17:57;100040.91;;;23.65;19.31
42691;BME280;28306;55.744;37.578;2023-01-27T02:20:27;100036.59;;;23.64;19.49
42691;BME280;28306;55.744;37.578;2023-01-27T02:28:25;100040.13;;;23.64;19.28
42691;BME280;28306;55.744;37.578;2023-01-27T02:30:56;100032.78;;;23.65;19.49
42691;BME280;28306;55.744;37.578;2023-01-27T02:33:22;100023.81;;;23.64;19.30
42691;BME280;28306;55.744;37.578;2023-01-27T02:38:26;100030.06;;;23.65;19.18
42691;BME280;28306;55.744;37.578;2023-01-27T02:40:54;100030.91;;;23.65;19.30
42691;BME280;28306;55.744;37.578;2023-01-27T02:43:21;100018.38;;;23.64;19.34
42691;BME280;28306;55.744;37.578;2023-01-27T02:45:47;100026.53;;;23.64;19.23
42691;BME280;28306;55.744;37.578;2023-01-27T02:48:13;100030.06;;;23.65;19.29
42691;BME280;28306;55.744;37.578;2023-01-27T02:50:38;100025.72;;;23.64;19.51
42691;BME280;28306;55.744;37.578;2023-01-27T02:53:05;100031.16;;;23.64;19.25
42691;BME280;28306;55.744;37.578;2023-01-27T02:55:31;100034.69;;;23.64;19.32
42691;BME280;28306;55.744;37.578;2023-01-27T02:57:57;100027.59;;;23.63;19.14
42691;BME280;28306;55.744;37.578;2023-01-27T03:00:38;100021.34;;;23.63;19.22
42691;BME280;28306;55.744;37.578;2023-01-27T03:03:04;100021.34;;;23.63;19.27
42691;BME280;28306;55.744;37.578;2023-01-27T03:05:29;100021.34;;;23.63;19.48
42691;BME280;28306;55.744;37.578;2023-01-27T03:07:55;100022.41;;;23.62;19.52
42691;BME280;28306;55.744;37.578;2023-01-27T03:10:21;100031.41;;;23.62;19.36
42691;BME280;28306;55.744;37.578;2023-01-27T03:12:46;100019.94;;;23.60;19.35
42691;BME280;28306;55.744;37.578;2023-01-27T03:15:12;100028.94;;;23.61;19.50
42691;BME280;28306;55.744;37.578;2023-01-27T03:18:06;100033.53;;;23.60;19.56
42691;BME280;28306;55.744;37.578;2023-01-27T03:20:39;100023.50;;;23.61;19.35
42691;BME280;28306;55.744;37.578;2023-01-27T03:23:05;100028.94;;;23.61;19.23
42691;BME280;28306;55.744;37.578;2023-01-27T03:25:32;100027.28;;;23.60;19.28
42691;BME280;28306;55.744;37.578;2023-01-27T03:27:58;100028.09;;;23.60;19.25
42691;BME280;28306;55.744;37.578;2023-01-27T03:30:46;100028.31;;;23.58;19.25
42691;BME280;28306;55.744;37.578;2023-01-27T03:33:30;100027.53;;;23.58;19.44
42691;BME280;28306;55.744;37.578;2023-01-27T03:36:00;100017.47;;;23.58;19.22
42691;BME280;28306;55.744;37.578;2023-01-27T03:38:47;100021.03;;;23.59;19.17
42691;BME280;28306;55.744;37.578;2023-01-27T03:41:32;100026.47;;;23.59;19.28
42691;BME280;28306;55.744;37.578;2023-01-27T03:44:18;100023.75;;;23.59;19.38
42691;BME280;28306;55.744;37.578;2023-01-27T03:47:02;100024.00;;;23.57;19.25
42691;BME280;28306;55.744;37.578;2023-01-27T03:49:28;100035.66;;;23.58;19.33
42691;BME280;28306;55.744;37.578;2023-01-27T03:51:54;100025.88;;;23.57;19.36
42691;BME280;28306;55.744;37.578;2023-01-27T03:54:19;100032.13;;;23.57;19.33
42691;BME280;28306;55.744;37.578;2023-01-27T03:56:44;100036.72;;;23.57;19.23
42691;BME280;28306;55.744;37.578;2023-01-27T03:59:13;100030.22;;;23.58;19.33
42691;BME280;28306;55.744;37.578;2023-01-27T04:01:38;100043.00;;;23.57;19.46
42691;BME280;28306;55.744;37.578;2023-01-27T04:04:04;100038.63;;;23.56;19.18
42691;BME280;28306;55.744;37.578;2023-01-27T04:06:48;100041.34;;;23.56;19.30
42691;BME280;28306;55.744;37.578;2023-01-27T04:09:23;100047.03;;;23.55;19.30
42691;BME280;28306;55.744;37.578;2023-01-27T04:11:49;100048.69;;;23.56;19.32
42691;BME280;28306;55.744;37.578;2023-01-27T04:16:55;100047.28;;;23.53;19.23
42691;BME280;28306;55.744;37.578;2023-01-27T04:19:21;100049.97;;;23.53;19.38
42691;BME280;28306;55.744;37.578;2023-01-27T04:21:49;100054.59;;;23.53;19.31
42691;BME280;28306;55.744;37.578;2023-01-27T04:24:14;100055.41;;;23.53;19.33
42691;BME280;28306;55.744;37.578;2023-01-27T04:26:50;100057.06;;;23.54;19.46
42691;BME280;28306;55.744;37.578;2023-01-27T04:29:15;100054.34;;;23.54;19.19
42691;BME280;28306;55.744;37.578;2023-01-27T04:31:41;100049.97;;;23.53;19.54
42691;BME280;28306;55.744;37.578;2023-01-27T04:34:07;100049.16;;;23.53;19.33
42691;BME280;28306;55.744;37.578;2023-01-27T04:36:34;100058.38;;;23.52;19.31
42691;BME280;28306;55.744;37.578;2023-01-27T04:39:00;100054.84;;;23.51;19.45
42691;BME280;28306;55.744;37.578;2023-01-27T04:41:26;100062.16;;;23.51;19.44
42691;BME280;28306;55.744;37.578;2023-01-27T04:43:52;100062.16;;;23.51;19.44
42691;BME280;28306;55.744;37.578;2023-01-27T04:46:20;100061.34;;;23.50;19.24
42691;BME280;28306;55.744;37.578;2023-01-27T04:48:46;100061.91;;;23.52;19.39
42691;BME280;28306;55.744;37.578;2023-01-27T04:51:11;100066.53;;;23.52;19.28
42691;BME280;28306;55.744;37.578;2023-01-27T04:53:37;100063.00;;;23.51;19.34
42691;BME280;28306;55.744;37.578;2023-01-27T04:56:04;100062.16;;;23.51;19.59
42691;BME280;28306;55.744;37.578;2023-01-27T04:58:29;100069.50;;;23.50;19.31
42691;BME280;28306;55.744;37.578;2023-01-27T05:00:55;100066.78;;;23.50;19.41
42691;BME280;28306;55.744;37.578;2023-01-27T05:03:20;100068.44;;;23.51;19.23
42691;BME280;28306;55.744;37.578;2023-01-27T05:05:46;100065.13;;;23.49;19.55
42691;BME280;28306;55.744;37.578;2023-01-27T05:08:11;100066.19;;;23.48;19.27
42691;BME280;28306;55.744;37.578;2023-01-27T05:10:37;100066.19;;;23.48;19.51
42691;BME280;28306;55.744;37.578;2023-01-27T05:13:02;100069.72;;;23.49;19.46
42691;BME280;28306;55.744;37.578;2023-01-27T05:15:28;100067.00;;;23.49;19.51
42691;BME280;28306;55.744;37.578;2023-01-27T05:17:54;100075.16;;;23.49;19.27
42691;BME280;28306;55.744;37.578;2023-01-27T05:20:20;100068.91;;;23.48;19.20
42691;BME280;28306;55.744;37.578;2023-01-27T05:22:45;100083.56;;;23.47;19.40
42691;BME280;28306;55.744;37.578;2023-01-27T05:25:11;100074.59;;;23.47;19.39
42691;BME280;28306;55.744;37.578;2023-01-27T05:27:36;100081.91;;;23.46;19.29
42691;BME280;28306;55.744;37.578;2023-01-27T05:30:02;100081.09;;;23.46;19.39
42691;BME280;28306;55.744;37.578;2023-01-27T05:32:27;100077.56;;;23.45;19.49
42691;BME280;28306;55.744;37.578;2023-01-27T05:34:53;100084.84;;;23.45;19.59
42691;BME280;28306;55.744;37.578;2023-01-27T05:37:18;100091.13;;;23.45;19.23
42691;BME280;28306;55.744;37.578;2023-01-27T05:39:44;100082.97;;;23.45;19.40
42691;BME280;28306;55.744;37.578;2023-01-27T05:42:12;100084.84;;;23.45;19.30
42691;BME280;28306;55.744;37.578;2023-01-27T05:44:40;100088.41;;;23.45;19.29
42691;BME280;28306;55.744;37.578;2023-01-27T05:47:06;100094.34;;;23.42;19.54
42691;BME280;28306;55.744;37.578;2023-01-27T05:49:31;100099.78;;;23.42;19.25
42691;BME280;28306;55.744;37.578;2023-01-27T05:51:57;100101.63;;;23.42;19.40
42691;BME280;28306;55.744;37.578;2023-01-27T05:54:23;100108.72;;;23.43;19.61
42691;BME280;28306;55.744;37.578;2023-01-27T05:56:49;100108.72;;;23.43;19.41
42691;BME280;28306;55.744;37.578;2023-01-27T05:59:14;100097.06;;;23.42;19.49
42691;BME280;28306;55.744;37.578;2023-01-27T06:01:40;100098.69;;;23.43;19.48
42691;BME280;28306;55.744;37.578;2023-01-27T06:04:05;100100.59;;;23.43;19.53
42691;BME280;28306;55.744;37.578;2023-01-27T06:06:31;100105.19;;;23.42;19.44
42691;BME280;28306;55.744;37.578;2023-01-27T06:08:57;100099.78;;;23.42;19.40
42691;BME280;28306;55.744;37.578;2023-01-27T06:11:26;100102.47;;;23.42;19.42
42691;BME280;28306;55.744;37.578;2023-01-27T06:13:52;100099.78;;;23.42;19.62
42691;BME280;28306;55.744;37.578;2023-01-27T06:16:18;100107.06;;;23.42;19.51
42691;BME280;28306;55.744;37.578;2023-01-27T06:18:44;100111.69;;;23.41;19.40
42691;BME280;28306;55.744;37.578;2023-01-27T06:21:11;100109.78;;;23.42;19.44
42691;BME280;28306;55.744;37.578;2023-01-27T06:23:37;100102.47;;;23.42;19.60
42691;BME280;28306;55.744;37.578;2023-01-27T06:26:03;100107.06;;;23.42;19.57
42691;BME280;28306;55.744;37.578;2023-01-27T06:28:29;100109.78;;;23.42;19.33
42691;BME280;28306;55.744;37.578;2023-01-27T06:30:55;100112.50;;;23.42;19.46
42691;BME280;28306;55.744;37.578;2023-01-27T06:33:20;100106.25;;;23.41;19.34
42691;BME280;28306;55.744;37.578;2023-01-27T06:35:46;100105.44;;;23.41;19.64
42691;BME280;28306;55.744;37.578;2023-01-27T06:38:11;100108.97;;;23.41;19.64
42691;BME280;28306;55.744;37.578;2023-01-27T06:40:38;100105.44;;;23.41;19.51
42691;BME280;28306;55.744;37.578;2023-01-27T06:43:07;100117.38;;;23.39;19.65
42691;BME280;28306;55.744;37.578;2023-01-27T06:45:35;100107.31;;;23.40;19.69
42691;BME280;28306;55.744;37.578;2023-01-27T06:48:00;100113.59;;;23.41;19.60
42691;BME280;28306;55.744;37.578;2023-01-27T06:50:28;100117.13;;;23.41;19.30
42691;BME280;28306;55.744;37.578;2023-01-27T06:52:59;100108.97;;;23.41;19.36
42691;BME280;28306;55.744;37.578;2023-01-27T06:55:29;100109.78;;;23.42;19.37
42691;BME280;28306;55.744;37.578;2023-01-27T06:57:54;100119.59;;;23.43;19.49
42691;BME280;28306;55.744;37.578;2023-01-27T07:00:20;100114.97;;;23.43;19.41
42691;BME280;28306;55.744;37.578;2023-01-27T07:02:45;100122.88;;;23.45;19.63
42691;BME280;28306;55.744;37.578;2023-01-27T07:05:11;100121.00;;;23.45;19.42
42691;BME280;28306;55.744;37.578;2023-01-27T07:07:37;100120.16;;;23.45;19.67
42691;BME280;28306;55.744;37.578;2023-01-27T07:10:03;100123.72;;;23.45;19.35
42691;BME280;28306;55.744;37.578;2023-01-27T07:12:28;100126.44;;;23.45;19.48
42691;BME280;28306;55.744;37.578;2023-01-27T07:14:54;100121.25;;;23.44;19.57
42691;BME280;28306;55.744;37.578;2023-01-27T07:17:19;100125.59;;;23.45;19.48
42691;BME280;28306;55.744;37.578;2023-01-27T07:19:44;100128.31;;;23.45;19.42
42691;BME280;28306;55.744;37.578;2023-01-27T07:22:10;100127.50;;;23.44;19.56
42691;BME280;28306;55.744;37.578;2023-01-27T07:24:35;100128.31;;;23.45;19.55
42691;BME280;28306;55.744;37.578;2023-01-27T07:27:01;100129.97;;;23.46;19.42
42691;BME280;28306;55.744;37.578;2023-01-27T07:29:26;100123.72;;;23.45;19.35
42691;BME280;28306;55.744;37.578;2023-01-27T07:31:52;100132.69;;;23.46;19.42
42691;BME280;28306;55.744;37.578;2023-01-27T07:34:17;100137.06;;;23.47;19.46
42691;BME280;28306;55.744;37.578;2023-01-27T07:36:43;100132.44;;;23.47;19.45
42691;BME280;28306;55.744;37.578;2023-01-27T07:39:08;100139.78;;;23.47;19.52
42691;BME280;28306;55.744;37.578;2023-01-27T07:41:34;100134.09;;;23.48;19.31
42691;BME280;28306;55.744;37.578;2023-01-27T07:44:00;100141.41;;;23.48;19.41
42691;BME280;28306;55.744;37.578;2023-01-27T07:46:25;100144.97;;;23.48;19.42
42691;BME280;28306;55.744;37.578;2023-01-27T07:48:51;100143.31;;;23.47;19.43
42691;BME280;28306;55.744;37.578;2023-01-27T07:51:17;100145.19;;;23.47;19.46
42691;BME280;28306;55.744;37.578;2023-01-27T07:53:42;100147.91;;;23.47;19.43
42691;BME280;28306;55.744;37.578;2023-01-27T07:56:08;100153.09;;;23.48;19.51
42691;BME280;28306;55.744;37.578;2023-01-27T07:58:39;100147.91;;;23.47;19.38
42691;BME280;28306;55.744;37.578;2023-01-27T08:01:06;100152.50;;;23.46;19.28
42691;BME280;28306;55.744;37.578;2023-01-27T08:03:31;100153.34;;;23.47;19.35
42691;BME280;28306;55.744;37.578;2023-01-27T08:05:57;100151.44;;;23.47;19.46
42691;BME280;28306;55.744;37.578;2023-01-27T08:08:22;100159.34;;;23.49;19.52
42691;BME280;28306;55.744;37.578;2023-01-27T08:10:48;100152.00;;;23.49;19.67
42691;BME280;28306;55.744;37.578;2023-01-27T08:13:15;100162.88;;;23.49;19.52
42691;BME280;28306;55.744;37.578;2023-01-27T08:15:41;100152.88;;;23.50;19.45
42691;BME280;28306;55.744;37.578;2023-01-27T08:18:07;100145.78;;;23.49;19.54
42691;BME280;28306;55.744;37.578;2023-01-27T08:20:33;100154.72;;;23.49;19.55
42691;BME280;28306;55.744;37.578;2023-01-27T08:22:59;100153.69;;;23.50;19.37
42691;BME280;28306;55.744;37.578;2023-01-27T08:25:24;100158.06;;;23.51;19.46
42691;BME280;28306;55.744;37.578;2023-01-27T08:27:50;100162.41;;;23.52;19.31
42691;BME280;28306;55.744;37.578;2023-01-27T08:30:16;100163.25;;;23.53;19.72
42691;BME280;28306;55.744;37.578;2023-01-27T08:32:41;100155.91;;;23.53;19.57
42691;BME280;28306;55.744;37.578;2023-01-27T08:35:07;100156.72;;;23.54;19.60
42691;BME280;28306;55.744;37.578;2023-01-27T08:37:32;100151.88;;;23.56;19.31
42691;BME280;28306;55.744;37.578;2023-01-27T08:39:57;100158.13;;;23.56;19.59
42691;BME280;28306;55.744;37.578;2023-01-27T08:42:23;100154.38;;;23.57;19.36
42691;BME280;28306;55.744;37.578;2023-01-27T08:44:48;100162.50;;;23.57;19.40
42691;BME280;28306;55.744;37.578;2023-01-27T08:47:14;100159.78;;;23.57;19.51
42691;BME280;28306;55.744;37.578;2023-01-27T08:49:39;100151.66;;;23.57;19.45
42691;BME280;28306;55.744;37.578;2023-01-27T08:52:05;100149.75;;;23.58;19.56
42691;BME280;28306;55.744;37.578;2023-01-27T08:54:30;100152.22;;;23.60;19.62
42691;BME280;28306;55.744;37.578;2023-01-27T08:56:56;100145.97;;;23.59;19.62
42691;BME280;28306;55.744;37.578;2023-01-27T08:59:21;100153.28;;;23.58;19.59
42691;BME280;28306;55.744;37.578;2023-01-27T09:01:47;100160.59;;;23.58;19.67
42691;BME280;28306;55.744;37.578;2023-01-27T09:04:12;100158.72;;;23.58;19.51
42691;BME280;28306;55.744;37.578;2023-01-27T09:06:40;100164.13;;;23.58;19.66
42691;BME280;28306;55.744;37.578;2023-01-27T09:09:05;100158.47;;;23.60;19.30
42691;BME280;28306;55.744;37.578;2023-01-27T09:11:38;100154.69;;;23.61;19.69
42691;BME280;28306;55.744;37.578;2023-01-27T09:14:04;100154.44;;;23.63;19.48
42691;BME280;28306;55.744;37.578;2023-01-27T09:16:29;100158.81;;;23.64;19.67
42691;BME280;28306;55.744;37.578;2023-01-27T09:18:55;100160.69;;;23.63;19.45
42691;BME280;28306;55.744;37.578;2023-01-27T09:21:22;100164.25;;;23.64;19.61
42691;BME280;28306;55.744;37.578;2023-01-27T09:23:48;100161.53;;;23.64;19.74
42691;BME280;28306;55.744;37.578;2023-01-27T09:26:13;100158.81;;;23.64;19.52
42691;BME280;28306;55.744;37.578;2023-01-27T09:28:39;100165.06;;;23.64;19.65
42691;BME280;28306;55.744;37.578;2023-01-27T09:31:04;100153.38;;;23.64;19.57
42691;BME280;28306;55.744;37.578;2023-01-27T09:33:30;100161.53;;;23.64;19.65
42691;BME280;28306;55.744;37.578;2023-01-27T09:36:00;100160.69;;;23.63;19.56
42691;BME280;28306;55.744;37.578;2023-01-27T09:38:27;100160.69;;;23.63;19.49
42691;BME280;28306;55.744;37.578;2023-01-27T09:51:04;100166.72;;;23.65;19.63
42691;BME280;28306;55.744;37.578;2023-01-27T09:53:37;100161.28;;;23.65;19.75
42691;BME280;28306;55.744;37.578;2023-01-27T10:01:42;100156.44;;;23.67;19.74
42691;BME280;28306;55.744;37.578;2023-01-27T10:20:04;100152.91;;;23.67;19.69
42691;BME280;28306;55.744;37.578;2023-01-27T10:25:07;100148.84;;;23.69;19.85
42691;BME280;28306;55.744;37.578;2023-01-27T10:27:37;100148.03;;;23.69;19.60
42691;BME280;28306;55.744;37.578;2023-01-27T10:37:35;100162.44;;;23.69;19.76
42691;BME280;28306;55.744;37.578;2023-01-27T10:40:15;100160.56;;;23.70;19.73
42691;BME280;28306;55.744;37.578;2023-01-27T10:56:29;100167.06;;;23.69;19.88
42691;BME280;28306;55.744;37.578;2023-01-27T11:01:34;100176.84;;;23.70;19.66
42691;BME280;28306;55.744;37.578;2023-01-27T11:04:04;100171.66;;;23.68;19.81
42691;BME280;28306;55.744;37.578;2023-01-27T11:06:37;100177.09;;;23.68;19.80
42691;BME280;28306;55.744;37.578;2023-01-27T11:09:11;100171.66;;;23.68;19.92
42691;BME280;28306;55.744;37.578;2023-01-27T11:11:38;100170.81;;;23.68;19.77
42691;BME280;28306;55.744;37.578;2023-01-27T11:16:52;100178.16;;;23.67;19.72
42691;BME280;28306;55.744;37.578;2023-01-27T11:21:52;100174.13;;;23.70;19.82
42691;BME280;28306;55.744;37.578;2023-01-27T11:24:22;100164.34;;;23.69;19.83
42691;BME280;28306;55.744;37.578;2023-01-27T11:26:51;100169.78;;;23.69;19.92
42691;BME280;28306;55.744;37.578;2023-01-27T11:34:29;100165.72;;;23.71;19.89
42691;BME280;28306;55.744;37.578;2023-01-27T11:36:57;100170.34;;;23.71;19.95
42691;BME280;28306;55.744;37.578;2023-01-27T11:39:23;100170.09;;;23.72;19.95
42691;BME280;28306;55.744;37.578;2023-01-27T11:41:51;100172.00;;;23.72;20.10
42691;BME280;28306;55.744;37.578;2023-01-27T11:44:18;100169.28;;;23.72;19.93
42691;BME280;28306;55.744;37.578;2023-01-27T11:46:45;100175.78;;;23.71;19.98
42691;BME280;28306;55.744;37.578;2023-01-27T11:49:11;100180.38;;;23.70;20.07
42691;BME280;28306;55.744;37.578;2023-01-27T11:51:38;100175.19;;;23.69;19.98
42691;BME280;28306;55.744;37.578;2023-01-27T11:54:17;100175.19;;;23.69;19.80
42691;BME280;28306;55.744;37.578;2023-01-27T11:56:45;100180.63;;;23.69;19.94
42691;BME280;28306;55.744;37.578;2023-01-27T12:01:45;100185.00;;;23.70;19.84
42691;BME280;28306;55.744;37.578;2023-01-27T12:04:17;100193.16;;;23.70;19.87
42691;BME280;28306;55.744;37.578;2023-01-27T12:06:45;100186.88;;;23.69;19.88
42691;BME280;28306;55.744;37.578;2023-01-27T12:09:31;100182.28;;;23.70;20.07
42691;BME280;28306;55.744;37.578;2023-01-27T12:14:38;100185.81;;;23.70;19.81
42691;BME280;28306;55.744;37.578;2023-01-27T12:17:04;100186.63;;;23.71;20.05
42691;BME280;28306;55.744;37.578;2023-01-27T12:19:34;100185.00;;;23.70;19.87
42691;BME280;28306;55.744;37.578;2023-01-27T12:22:01;100185.81;;;23.70;20.16
42691;BME280;28306;55.744;37.578;2023-01-27T12:24:31;100180.38;;;23.70;19.88
42691;BME280;28306;55.744;37.578;2023-01-27T12:26:57;100187.72;;;23.70;19.89
42691;BME280;28306;55.744;37.578;2023-01-27T12:29:26;100185.00;;;23.70;19.91
42691;BME280;28306;55.744;37.578;2023-01-27T12:31:53;100192.31;;;23.69;20.01
42691;BME280;28306;55.744;37.578;2023-01-27T12:34:24;100196.69;;;23.70;20.02
42691;BME280;28306;55.744;37.578;2023-01-27T12:36:50;100194.22;;;23.69;19.81
42691;BME280;28306;55.744;37.578;2023-01-27T12:41:47;100200.47;;;23.69;19.95
42691;BME280;28306;55.744;37.578;2023-01-27T12:44:15;100205.09;;;23.69;19.92
42691;BME280;28306;55.744;37.578;2023-01-27T12:49:29;100208.03;;;23.67;20.01
42691;BME280;28306;55.744;37.578;2023-01-27T12:51:55;100216.19;;;23.67;19.91
42691;BME280;28306;55.744;37.578;2023-01-27T12:54:22;100215.38;;;23.67;19.87
42691;BME280;28306;55.744;37.578;2023-01-27T12:56:51;100214.53;;;23.66;19.83
42691;BME280;28306;55.744;37.578;2023-01-27T12:59:19;100209.09;;;23.66;19.79
42691;BME280;28306;55.744;37.578;2023-01-27T13:04:23;100218.34;;;23.65;20.02
42691;BME280;28306;55.744;37.578;2023-01-27T13:11:54;100216.19;;;23.67;19.84
42691;BME280;28306;55.744;37.578;2023-01-27T13:14:21;100209.09;;;23.66;20.08
42691;BME280;28306;55.744;37.578;2023-01-27T13:16:51;100207.22;;;23.67;20.05
42691;BME280;28306;55.744;37.578;2023-01-27T13:19:16;100211.81;;;23.66;19.78
42691;BME280;28306;55.744;37.578;2023-01-27T13:21:42;100219.97;;;23.66;20.05
42691;BME280;28306;55.744;37.578;2023-01-27T13:24:11;100216.44;;;23.66;19.99
42691;BME280;28306;55.744;37.578;2023-01-27T13:26:38;100219.41;;;23.64;19.97
42691;BME280;28306;55.744;37.578;2023-01-27T13:37:12;100224.00;;;23.64;20.10
42691;BME280;28306;55.744;37.578;2023-01-27T13:42:17;100227.53;;;23.64;19.89
42691;BME280;28306;55.744;37.578;2023-01-27T13:44:44;100227.53;;;23.64;19.90
42691;BME280;28306;55.744;37.578;2023-01-27T13:47:19;100231.06;;;23.65;19.99
42691;BME280;28306;55.744;37.578;2023-01-27T13:49:48;100229.22;;;23.65;19.79
42691;BME280;28306;55.744;37.578;2023-01-27T13:52:14;100232.97;;;23.64;19.84
42691;BME280;28306;55.744;37.578;2023-01-27T13:54:40;100237.59;;;23.64;19.98
42691;BME280;28306;55.744;37.578;2023-01-27T14:14:53;100249.75;;;23.61;19.58
42691;BME280;28306;55.744;37.578;2023-01-27T14:17:35;100253.28;;;23.62;19.75
42691;BME280;28306;55.744;37.578;2023-01-27T14:22:57;100249.75;;;23.61;19.89
42691;BME280;28306;55.744;37.578;2023-01-27T14:25:36;100261.69;;;23.60;19.76
42691;BME280;28306;55.744;37.578;2023-01-27T14:30:42;100265.25;;;23.61;19.87
42691;BME280;28306;55.744;37.578;2023-01-27T14:33:35;100273.38;;;23.61;19.87
42691;BME280;28306;55.744;37.578;2023-01-27T14:35:59;100272.53;;;23.60;19.75
42691;BME280;28306;55.744;37.578;2023-01-27T14:38:30;100277.97;;;23.60;20.10
42691;BME280;28306;55.744;37.578;2023-01-27T14:51:02;100280.94;;;23.58;20.00
42691;BME280;28306;55.744;37.578;2023-01-27T14:53:43;100285.78;;;23.56;20.08
42691;BME280;28306;55.744;37.578;2023-01-27T15:26:40;100295.94;;;23.61;20.18
42691;BME280;28306;55.744;37.578;2023-01-27T15:29:09;100294.88;;;23.62;20.26
42691;BME280;28306;55.744;37.578;2023-01-27T15:31:37;100296.75;;;23.62;20.04
42691;BME280;28306;55.744;37.578;2023-01-27T15:36:35;100301.69;;;23.65;20.24
42691;BME280;28306;55.744;37.578;2023-01-27T15:41:33;100307.97;;;23.65;20.12
42691;BME280;28306;55.744;37.578;2023-01-27T15:46:36;100306.09;;;23.66;20.39
42691;BME280;28306;55.744;37.578;2023-01-27T15:49:07;100302.31;;;23.67;20.06